createdAt,value
2023-01-18T00:01:37.821Z,81.23
2023-01-18T00:06:41.280Z,80.88
2023-01-18T00:11:44.829Z,80.93
2023-01-18T00:16:47.991Z,81.23
2023-01-18T00:21:54.221Z,81.22
2023-01-18T00:26:56.404Z,81.38
2023-01-18T00:31:58.568Z,81.70
2023-01-18T00:37:01.307Z,81.27
2023-01-18T00:42:22.861Z,81.36
2023-01-18T00:47:26.408Z,81.46
2023-01-18T00:52:30.344Z,81.38
2023-01-18T00:57:33.269Z,81.46
2023-01-18T01:02:42.653Z,81.74
2023-01-18T01:07:49.235Z,81.69
2023-01-18T01:13:11.601Z,81.26
2023-01-18T01:18:33.993Z,81.63
2023-01-18T01:23:56.249Z,82.26
2023-01-18T01:29:00.453Z,82.17
2023-01-18T01:34:02.711Z,82.38
2023-01-18T01:39:07.262Z,82.39
2023-01-18T01:44:25.427Z,82.17
2023-01-18T01:49:32.885Z,82.21
2023-01-18T01:55:04.678Z,82.28
2023-01-18T02:00:12.262Z,82.55
2023-01-18T02:05:17.354Z,82.69
2023-01-18T02:10:19.634Z,82.88
2023-01-18T02:15:26.441Z,83.12
2023-01-18T02:20:33.644Z,83.21
2023-01-18T02:26:13.547Z,82.77
2023-01-18T02:31:22.905Z,82.84
2023-01-18T02:36:49.395Z,82.73
2023-01-18T02:42:17.834Z,82.66
2023-01-18T02:47:23.586Z,82.15
2023-01-18T02:52:48.490Z,82.03
2023-01-18T02:57:56.845Z,82.20
2023-01-18T03:03:02.642Z,81.68
2023-01-18T03:08:16.277Z,81.58
2023-01-18T03:13:34.097Z,81.71
2023-01-18T03:19:27.467Z,81.20
2023-01-18T03:24:30.850Z,81.17
2023-01-18T03:29:51.348Z,80.72
2023-01-18T03:35:17.393Z,81.06
2023-01-18T03:40:27.565Z,80.77
2023-01-18T03:45:50.052Z,80.72
2023-01-18T03:51:00.667Z,80.54
2023-01-18T03:56:17.558Z,80.64
2023-01-18T04:01:20.281Z,80.40
2023-01-18T04:06:23.986Z,80.39
2023-01-18T04:11:27.056Z,80.65
2023-01-18T04:16:29.918Z,80.42
2023-01-18T04:21:34.122Z,80.59
2023-01-18T04:26:37.441Z,80.51
2023-01-18T04:31:39.576Z,80.54
2023-01-18T04:36:42.327Z,80.76
2023-01-18T04:41:44.998Z,80.45
2023-01-18T04:46:49.149Z,80.85
2023-01-18T04:51:52.982Z,81.05
2023-01-18T04:56:56.336Z,81.01
2023-01-18T05:01:59.146Z,80.82
2023-01-18T05:07:01.694Z,81.09
2023-01-18T05:12:04.605Z,81.09
2023-01-18T05:17:07.810Z,81.27
2023-01-18T05:22:11.547Z,81.59
2023-01-18T05:27:15.268Z,81.62
2023-01-18T05:32:18.486Z,81.96
2023-01-18T05:37:23.702Z,82.11
2023-01-18T05:42:26.756Z,82.08
2023-01-18T05:47:29.574Z,82.30
2023-01-18T05:52:34.682Z,82.58
2023-01-18T05:57:38.140Z,82.53
2023-01-18T06:02:40.744Z,82.64
2023-01-18T06:07:43.750Z,82.86
2023-01-18T06:12:47.343Z,82.74
2023-01-18T06:17:50.921Z,82.82
2023-01-18T06:22:54.876Z,82.99
2023-01-18T06:27:58.579Z,83.15
2023-01-18T06:33:06.934Z,83.22
2023-01-18T06:38:10.501Z,83.11
2023-01-18T06:43:14.573Z,83.09
2023-01-18T06:48:17.728Z,83.04
2023-01-18T06:53:21.392Z,83.52
2023-01-18T06:58:25.611Z,83.55
2023-01-18T07:03:29.640Z,83.73
2023-01-18T07:08:34.194Z,84.10
2023-01-18T07:13:43.889Z,83.65
2023-01-18T07:18:49.216Z,83.92
2023-01-18T07:23:53.544Z,83.87
2023-01-18T07:28:58.163Z,83.70
2023-01-18T07:34:00.620Z,84.27
2023-01-18T07:39:03.041Z,84.48
2023-01-18T07:44:05.935Z,84.24
2023-01-18T07:49:08.992Z,84.25
2023-01-18T07:54:11.729Z,84.45
2023-01-18T07:59:14.906Z,84.59
2023-01-18T08:04:18.605Z,84.31
2023-01-18T08:09:21.346Z,84.47
2023-01-18T08:14:23.560Z,84.92
2023-01-18T08:19:26.343Z,84.81
2023-01-18T08:24:28.963Z,84.67
2023-01-18T08:29:31.686Z,84.93
2023-01-18T08:34:33.755Z,84.90
2023-01-18T08:39:38.263Z,84.75
2023-01-18T08:44:41.150Z,84.79
2023-01-18T08:49:44.223Z,84.77
2023-01-18T08:54:47.270Z,84.77
2023-01-18T08:59:52.858Z,84.81
2023-01-18T09:04:55.108Z,84.88
2023-01-18T09:09:58.415Z,84.98
2023-01-18T09:15:01.632Z,84.96
2023-01-18T09:20:09.816Z,84.92
2023-01-18T09:25:13.878Z,85.10
2023-01-18T09:30:17.500Z,85.22
2023-01-18T09:35:20.429Z,84.99
2023-01-18T09:40:27.609Z,85.18
2023-01-18T09:45:34.957Z,85.06
2023-01-18T09:50:45.255Z,85.08
2023-01-18T09:55:57.113Z,85.44
2023-01-18T10:01:05.794Z,85.24
2023-01-18T10:06:16.019Z,85.49
2023-01-18T10:11:22.698Z,85.53
2023-01-18T10:16:25.321Z,85.25
2023-01-18T10:21:41.746Z,85.23
2023-01-18T10:26:48.042Z,85.12
2023-01-18T10:31:59.238Z,85.00
2023-01-18T10:37:14.758Z,84.85
2023-01-18T10:42:45.121Z,85.06
2023-01-18T10:47:48.668Z,84.76
2023-01-18T10:52:51.122Z,84.92
2023-01-18T10:57:54.705Z,84.92
2023-01-18T11:02:59.583Z,84.90
2023-01-18T11:08:22.690Z,84.89
2023-01-18T11:13:27.451Z,84.89
2023-01-18T11:18:29.977Z,85.25
2023-01-18T11:23:37.265Z,84.93
2023-01-18T11:28:45.819Z,85.07
2023-01-18T11:34:08.491Z,85.25
2023-01-18T11:39:18.147Z,85.21
2023-01-18T11:44:30.976Z,85.36
2023-01-18T11:49:44.953Z,85.56
2023-01-18T11:54:56.094Z,85.61
2023-01-18T11:59:58.874Z,85.72
2023-01-18T12:05:22.642Z,85.45
2023-01-18T12:10:32.250Z,85.38
2023-01-18T12:15:42.786Z,85.60
2023-01-18T12:21:03.510Z,85.61
2023-01-18T12:26:48.661Z,85.11
2023-01-18T12:32:13.269Z,85.36
2023-01-18T12:37:43.183Z,85.16
2023-01-18T12:42:51.697Z,84.69
2023-01-18T12:48:05.727Z,84.55
2023-01-18T12:53:50.236Z,84.43
2023-01-18T12:59:01.270Z,84.09
2023-01-18T13:04:18.429Z,83.99
2023-01-18T13:09:28.610Z,83.84
2023-01-18T13:15:05.523Z,83.89
2023-01-18T13:20:11.722Z,84.16
2023-01-18T13:25:38.576Z,83.70
2023-01-18T13:31:02.325Z,83.70
2023-01-18T13:36:11.867Z,83.87
2023-01-18T13:41:17.294Z,84.14
2023-01-18T13:46:25.098Z,83.93
2023-01-18T13:51:40.340Z,84.25
2023-01-18T13:57:06.216Z,83.91
2023-01-18T14:02:34.968Z,84.31
2023-01-18T14:07:44.308Z,83.90
2023-01-18T14:12:54.279Z,84.35
2023-01-18T14:17:59.373Z,84.10
2023-01-18T14:23:28.938Z,84.33
2023-01-18T14:28:56.145Z,84.06
2023-01-18T14:34:19.194Z,84.13
2023-01-18T14:39:23.211Z,84.25
2023-01-18T14:44:57.277Z,84.32
2023-01-18T14:50:04.891Z,84.24
2023-01-18T14:55:24.292Z,84.01
2023-01-18T15:00:27.917Z,84.14
2023-01-18T15:05:31.229Z,83.97
2023-01-18T15:10:36.046Z,84.29
2023-01-18T15:15:42.255Z,84.21
2023-01-18T15:20:56.919Z,84.00
2023-01-18T15:25:59.831Z,84.45
2023-01-18T15:31:16.507Z,84.60
2023-01-18T15:36:20.055Z,84.55
2023-01-18T15:41:23.453Z,84.78
2023-01-18T15:46:29.071Z,84.62
2023-01-18T15:51:58.587Z,84.60
2023-01-18T15:57:19.333Z,84.66
2023-01-18T16:02:23.802Z,84.72
2023-01-18T16:07:41.910Z,84.82
2023-01-18T16:12:48.258Z,84.55
2023-01-18T16:17:57.016Z,84.69
2023-01-18T16:23:09.249Z,84.79
2023-01-18T16:28:13.053Z,85.13
2023-01-18T16:33:20.122Z,84.62
2023-01-18T16:38:24.788Z,84.53
2023-01-18T16:43:32.600Z,84.58
2023-01-18T16:48:40.189Z,84.85
2023-01-18T16:53:44.789Z,84.68
2023-01-18T16:58:49.813Z,85.07
2023-01-18T17:03:54.584Z,84.74
2023-01-18T17:09:06.472Z,84.87
2023-01-18T17:14:11.834Z,84.90
2023-01-18T17:19:24.388Z,84.77
2023-01-18T17:24:28.861Z,85.16
2023-01-18T17:29:34.879Z,85.45
2023-01-18T17:34:39.789Z,85.18
2023-01-18T17:39:44.287Z,85.36
2023-01-18T17:45:04.209Z,85.55
2023-01-18T17:50:13.955Z,85.59
2023-01-18T17:55:19.637Z,85.40
2023-01-18T18:00:27.577Z,85.57
2023-01-18T18:05:30.407Z,85.63
2023-01-18T18:10:33.356Z,85.77
2023-01-18T18:15:35.290Z,85.27
2023-01-18T18:20:41.388Z,85.48
2023-01-18T18:25:45.728Z,85.26
2023-01-18T18:30:48.486Z,85.70
2023-01-18T18:35:51.699Z,85.63
2023-01-18T18:40:54.843Z,85.63
2023-01-18T18:45:57.313Z,85.55
2023-01-18T18:51:04.134Z,85.55
2023-01-18T18:56:10.574Z,85.83
2023-01-18T19:01:24.702Z,85.65
2023-01-18T19:06:30.526Z,85.82
2023-01-18T19:11:39.488Z,85.83
2023-01-18T19:16:45.864Z,85.70
2023-01-18T19:21:51.016Z,85.51
2023-01-18T19:26:56.158Z,85.79
2023-01-18T19:32:01.581Z,85.61
2023-01-18T19:37:08.805Z,85.89
2023-01-18T19:42:19.307Z,86.16
2023-01-18T19:47:44.076Z,85.95
2023-01-18T19:53:02.325Z,85.87
2023-01-18T19:58:35.425Z,86.15
2023-01-18T20:09:20.305Z,86.01
2023-01-18T20:14:40.434Z,85.94
2023-01-18T20:19:45.196Z,85.86
2023-01-18T20:24:49.161Z,85.71
2023-01-18T20:29:52.440Z,86.02
2023-01-18T20:34:57.500Z,85.94
2023-01-18T20:40:00.201Z,85.96
2023-01-18T20:45:04.561Z,86.04
2023-01-18T20:50:07.291Z,85.87
2023-01-18T20:55:16.032Z,85.73
2023-01-18T21:00:35.909Z,85.40
2023-01-18T21:05:45.762Z,85.71
2023-01-18T21:10:48.346Z,85.74
2023-01-18T21:15:57.935Z,86.01
2023-01-18T21:21:00.798Z,86.14
2023-01-18T21:26:04.523Z,86.20
2023-01-18T21:31:10.408Z,85.89
2023-01-18T21:36:20.355Z,86.02
2023-01-18T21:41:42.514Z,86.15
2023-01-18T21:46:50.749Z,86.11
2023-01-18T21:52:12.199Z,85.96
2023-01-18T21:57:14.783Z,86.32
2023-01-18T22:02:17.749Z,86.05
2023-01-18T22:07:20.834Z,85.79
2023-01-18T22:12:23.785Z,85.88
2023-01-18T22:17:25.923Z,86.39
2023-01-18T22:22:28.306Z,86.37
2023-01-18T22:27:31.057Z,86.20
2023-01-18T22:32:35.102Z,86.04
2023-01-18T22:37:39.325Z,86.29
2023-01-18T22:42:44.517Z,86.44
2023-01-18T22:47:49.564Z,86.51
2023-01-18T22:52:55.928Z,86.51
2023-01-18T22:58:01.859Z,86.10
2023-01-18T23:03:08.173Z,86.05
2023-01-18T23:08:12.845Z,85.83
2023-01-18T23:13:15.331Z,85.96
2023-01-18T23:18:18.744Z,86.00
2023-01-18T23:23:22.639Z,86.03
2023-01-18T23:28:43.545Z,86.60
2023-01-18T23:33:47.426Z,86.70
2023-01-18T23:39:09.270Z,86.58
2023-01-18T23:44:30.954Z,86.48
2023-01-18T23:49:53.292Z,86.05
2023-01-18T23:54:57.381Z,86.23
